Time;durP1;ratioP1;P1;durP2;ratioP2;P2;SDS_P1;SDS_P2;PMS_P1;PMS_P2;Temp;Humidity;BMP_temperature;BMP_pressure;BME280_temperature;BME280_humidity;BME280_pressure;Samples;Min_cycle;Max_cycle;Signal;HPM_P1;HPM_P2
2023/01/22 00:01:34;;;;;;;0.73;0.73;;;;;;;11.70;100.00;100090.16;5078073;28;20262;-73
2023/01/22 00:04:01;;;;;;;0.60;0.60;;;;;;;11.81;100.00;100101.53;5114356;28;20224;-73
2023/01/22 00:06:27;;;;;;;0.50;0.50;;;;;;;11.83;100.00;100111.09;5112040;28;20201;-74
2023/01/22 00:08:54;;;;;;;0.70;0.70;;;;;;;11.74;100.00;100099.72;5104282;28;20264;-74
2023/01/22 00:11:21;;;;;;;0.50;0.50;;;;;;;11.95;100.00;100125.91;5094829;28;20194;-74
2023/01/22 00:13:50;;;;;;;0.63;0.63;;;;;;;11.94;100.00;100129.41;5106109;28;20231;-74
2023/01/22 00:16:18;;;;;;;0.77;0.77;;;;;;;12.03;100.00;100113.88;5113781;28;20205;-74
2023/01/22 00:18:44;;;;;;;0.70;0.70;;;;;;;11.86;100.00;100089.47;5093650;28;20671;-74
2023/01/22 00:21:12;;;;;;;0.75;0.75;;;;;;;12.10;100.00;100141.66;5095809;28;20575;-74
2023/01/22 00:23:39;;;;;;;0.70;0.70;;;;;;;12.13;100.00;100136.50;5094338;28;20304;-74
2023/01/22 00:26:09;;;;;;;0.70;0.70;;;;;;;12.15;100.00;100134.81;5077612;28;20258;-75
2023/01/22 00:28:37;;;;;;;0.60;0.60;;;;;;;12.09;100.00;100134.75;5105324;28;20726;-75
2023/01/22 00:31:06;;;;;;;0.60;0.60;;;;;;;12.17;100.00;100142.59;5093333;28;20776;-75
2023/01/22 00:33:33;;;;;;;0.60;0.60;;;;;;;12.11;100.00;100126.94;5109577;28;20278;-75
2023/01/22 00:36:04;;;;;;;0.60;0.60;;;;;;;11.97;100.00;100119.03;5110409;28;20987;-75
2023/01/22 00:38:31;;;;;;;0.80;0.80;;;;;;;12.01;100.00;100136.41;5108224;28;20294;-74
2023/01/22 00:41:00;;;;;;;0.60;0.60;;;;;;;11.89;100.00;100115.47;5095684;28;20201;-75
2023/01/22 00:43:27;;;;;;;0.80;0.80;;;;;;;11.83;100.00;100110.22;5111697;28;20200;-75
2023/01/22 00:45:54;;;;;;;0.77;0.77;;;;;;;11.93;100.00;100127.66;5043709;28;20529;-75
2023/01/22 00:48:22;;;;;;;0.68;0.68;;;;;;;11.92;100.00;100131.09;5093154;28;20198;-74
2023/01/22 00:50:49;;;;;;;0.80;0.80;;;;;;;11.76;100.00;100096.31;5108824;28;20571;-75
2023/01/22 00:53:16;;;;;;;0.60;0.60;;;;;;;12.04;100.00;100120.84;5077468;28;20209;-74
2023/01/22 00:55:50;;;;;;;0.70;0.70;;;;;;;12.09;100.00;100133.88;5070474;28;20534;-74
2023/01/22 00:58:17;;;;;;;0.60;0.60;;;;;;;12.04;100.00;100120.84;5100925;28;20712;-72
2023/01/22 01:00:44;;;;;;;0.60;0.60;;;;;;;12.02;100.00;100137.28;5092723;28;20213;-74
2023/01/22 01:03:30;;;;;;;0.70;0.70;;;;;;;12.08;100.00;100143.41;5059748;28;20540;-74
2023/01/22 01:06:00;;;;;;;0.80;0.80;;;;;;;12.14;100.00;100137.38;5092249;28;20194;-74
2023/01/22 01:08:28;;;;;;;0.70;0.70;;;;;;;12.08;100.00;100152.91;5092484;28;20233;-74
2023/01/22 01:10:55;;;;;;;0.60;0.60;;;;;;;11.92;100.00;100131.97;5108953;28;20599;-73
2023/01/22 01:13:22;;;;;;;0.80;0.80;;;;;;;12.09;100.00;100146.88;5108846;28;20198;-74
2023/01/22 01:15:50;;;;;;;0.60;0.60;;;;;;;12.03;100.00;100155.47;5111462;28;20196;-73
2023/01/22 01:18:17;;;;;;;0.70;0.70;;;;;;;12.04;100.00;100146.81;5112591;28;20275;-73
2023/01/22 01:20:43;;;;;;;0.70;0.70;;;;;;;11.84;100.00;100127.56;5103774;28;20202;-75
2023/01/22 01:23:12;;;;;;;0.98;0.98;;;;;;;12.04;100.00;100146.81;5092410;28;20672;-75
2023/01/22 01:25:42;;;;;;;0.60;0.60;;;;;;;12.08;100.00;100143.41;5110424;28;20213;-75
2023/01/22 01:28:08;;;;;;;0.60;0.60;;;;;;;11.95;100.00;100141.50;5112353;28;20300;-75
2023/01/22 01:30:35;;;;;;;0.80;0.80;;;;;;;11.94;100.00;100150.19;5110493;28;20255;-75
2023/01/22 01:33:02;;;;;;;0.70;0.70;;;;;;;11.89;100.00;100147.53;5094672;28;20328;-75
2023/01/22 01:35:29;;;;;;;0.80;0.80;;;;;;;11.86;100.00;100146.63;5075910;28;20205;-75
2023/01/22 01:37:55;;;;;;;0.65;0.65;;;;;;;11.75;100.00;100138.72;5095620;28;20611;-73
2023/01/22 01:40:24;;;;;;;0.70;0.70;;;;;;;11.83;100.00;100149.19;5102468;28;20570;-75
2023/01/22 01:42:50;;;;;;;0.80;0.80;;;;;;;11.81;100.00;100149.16;5093244;28;20194;-75
2023/01/22 01:45:23;;;;;;;0.70;0.70;;;;;;;11.91;100.00;100155.34;5041982;28;20668;-75
2023/01/22 01:47:54;;;;;;;0.80;0.80;;;;;;;11.76;100.00;100137.00;5099691;28;20209;-75
2023/01/22 01:50:25;;;;;;;0.65;0.65;;;;;;;11.95;100.00;100146.72;5040725;28;20656;-75
2023/01/22 01:52:52;;;;;;;0.65;0.65;;;;;;;11.86;100.00;100147.50;5107678;28;20232;-75
2023/01/22 01:55:24;;;;;;;0.77;0.77;;;;;;;11.94;100.00;100155.38;5102408;28;20253;-74
2023/01/22 01:57:55;;;;;;;0.73;0.73;;;;;;;11.98;100.00;100162.34;5091275;28;20221;-74
2023/01/22 02:00:22;;;;;;;0.60;0.60;;;;;;;11.93;100.00;100153.63;5104116;28;20193;-75
2023/01/22 02:02:49;;;;;;;0.80;0.80;;;;;;;11.88;100.00;100148.38;5111223;28;20656;-74
2023/01/22 02:05:19;;;;;;;0.77;0.77;;;;;;;11.80;100.00;100141.38;5093665;28;20249;-75
2023/01/22 02:07:46;;;;;;;0.70;0.70;;;;;;;11.90;100.00;100145.81;5091523;28;20556;-74
2023/01/22 02:10:13;;;;;;;0.60;0.60;;;;;;;11.81;100.00;100148.28;5102176;28;20636;-75
2023/01/22 02:12:40;;;;;;;0.70;0.70;;;;;;;11.67;100.00;100124.72;5096438;28;20194;-74
2023/01/22 02:15:10;;;;;;;0.70;0.70;;;;;;;11.71;100.00;100125.66;5108632;28;20197;-73
2023/01/22 02:17:36;;;;;;;0.90;0.90;;;;;;;11.78;100.00;100143.94;5090476;28;20761;-74
2023/01/22 02:20:04;;;;;;;0.70;0.70;;;;;;;11.79;100.00;100157.81;5095163;28;20751;-74
2023/01/22 02:22:36;;;;;;;0.65;0.65;;;;;;;11.89;100.00;100155.31;5045323;28;20202;-74
2023/01/22 02:25:03;;;;;;;0.70;0.70;;;;;;;11.76;100.00;100142.19;5099615;28;20194;-75
2023/01/22 02:27:30;;;;;;;0.50;0.50;;;;;;;11.82;100.00;100160.44;5091132;28;20206;-75
2023/01/22 02:29:56;;;;;;;0.80;0.80;;;;;;;11.80;100.00;100167.34;5110077;28;20204;-75
2023/01/22 02:32:23;;;;;;;0.75;0.75;;;;;;;11.77;100.00;100169.91;5059396;28;20197;-75
2023/01/22 02:34:50;;;;;;;0.80;0.80;;;;;;;11.85;100.00;100166.53;5101666;28;20201;-75
2023/01/22 02:37:18;;;;;;;0.80;0.80;;;;;;;11.88;100.00;100173.47;5104636;28;20217;-75
2023/01/22 02:39:46;;;;;;;0.80;0.80;;;;;;;11.84;100.00;100163.94;5108489;28;20260;-75
2023/01/22 02:42:13;;;;;;;0.60;0.60;;;;;;;11.89;100.00;100167.44;5096169;28;20625;-75
2023/01/22 02:44:40;;;;;;;0.60;0.60;;;;;;;11.87;100.00;100170.03;5093791;28;20202;-75
2023/01/22 02:47:07;;;;;;;0.50;0.50;;;;;;;11.85;100.00;100176.03;5104213;28;20528;-75
2023/01/22 02:49:34;;;;;;;0.60;0.60;;;;;;;11.81;100.00;100148.28;5111217;28;20205;-74
2023/01/22 02:52:00;;;;;;;0.50;0.50;;;;;;;11.87;100.00;100174.34;5098771;28;20354;-75
2023/01/22 02:54:27;;;;;;;0.50;0.50;;;;;;;11.82;100.00;100176.03;5090933;28;20231;-75
2023/01/22 02:56:56;;;;;;;0.60;0.60;;;;;;;11.93;100.00;100164.03;5090709;28;20198;-75
2023/01/22 02:59:22;;;;;;;0.70;0.70;;;;;;;11.91;100.00;100160.56;5090869;28;20261;-75
2023/01/22 03:01:50;;;;;;;0.60;0.60;;;;;;;11.96;100.00;100178.75;5090595;28;20198;-75
2023/01/22 03:04:17;;;;;;;0.70;0.70;;;;;;;12.02;100.00;100190.09;5107781;28;20662;-74
2023/01/22 03:06:46;;;;;;;0.77;0.77;;;;;;;11.84;100.00;100148.34;5110642;28;20208;-74
2023/01/22 03:09:14;;;;;;;0.60;0.60;;;;;;;12.05;100.00;100179.75;5109472;28;20623;-74
2023/01/22 03:11:43;;;;;;;0.60;0.60;;;;;;;12.18;100.00;100202.41;5108799;28;20201;-74
2023/01/22 03:22:25;;;;;;;0.80;0.80;;;;;;;11.61;100.00;100212.09;5110691;28;20237;-74
2023/01/22 03:24:52;;;;;;;0.77;0.77;;;;;;;11.30;100.00;100240.25;5110442;28;20288;-74
2023/01/22 03:27:20;;;;;;;1.02;1.02;;;;;;;10.82;100.00;100257.63;5111099;28;20240;-74
2023/01/22 03:29:48;;;;;;;0.80;0.80;;;;;;;10.30;100.00;100250.66;5114211;28;20206;-74
2023/01/22 03:32:15;;;;;;;0.55;0.55;;;;;;;9.94;100.00;100241.31;5111630;28;20189;-72
2023/01/22 03:34:42;;;;;;;0.80;0.80;;;;;;;10.10;100.00;100237.28;5113916;28;20205;-74
2023/01/22 03:37:11;;;;;;;0.60;0.60;;;;;;;9.87;100.00;100207.47;5108118;28;20206;-74
2023/01/22 03:39:39;;;;;;;0.80;0.80;;;;;;;10.02;100.00;100225.91;5101041;28;20549;-75
2023/01/22 03:42:06;;;;;;;1.00;1.00;;;;;;;10.04;100.00;100223.34;5100289;28;20259;-75
2023/01/22 03:44:33;;;;;;;0.65;0.65;;;;;;;10.12;100.00;100227.84;5095625;28;20206;-75
2023/01/22 03:47:01;;;;;;;0.90;0.90;;;;;;;10.18;100.00;100204.66;5105715;28;20223;-74
2023/01/22 03:49:27;;;;;;;0.82;0.82;;;;;;;10.26;100.00;100208.28;5103398;28;20202;-75
2023/01/22 03:51:55;;;;;;;0.65;0.65;;;;;;;10.30;100.00;100225.63;5108248;28;20329;-75
2023/01/22 03:54:22;;;;;;;0.60;0.60;;;;;;;10.01;100.00;100180.13;5112161;28;20255;-75
2023/01/22 03:56:49;;;;;;;0.70;0.70;;;;;;;10.26;100.00;100226.41;5094315;28;20202;-74
2023/01/22 03:59:15;;;;;;;0.80;0.80;;;;;;;10.23;100.00;100241.03;5094307;28;20233;-75
2023/01/22 04:01:42;;;;;;;0.73;0.73;;;;;;;10.08;100.00;100251.94;5101148;28;20202;-75
2023/01/22 04:04:10;;;;;;;0.68;0.68;;;;;;;9.73;100.00;100240.88;5118192;28;20205;-75
2023/01/22 04:06:37;;;;;;;0.90;0.90;;;;;;;9.44;100.00;100270.44;5065494;28;20194;-75
2023/01/22 04:09:04;;;;;;;0.90;0.90;;;;;;;9.18;100.00;100274.13;5117584;28;20197;-75
2023/01/22 04:11:31;;;;;;;0.80;0.80;;;;;;;9.28;100.00;100276.94;5107631;28;20210;-75
2023/01/22 04:13:57;;;;;;;1.00;1.00;;;;;;;9.23;100.00;100278.56;5111262;28;20718;-76
2023/01/22 04:16:24;;;;;;;1.83;1.20;;;;;;;9.24;100.00;100276.88;5113622;28;20687;-76
2023/01/22 04:18:51;;;;;;;0.63;0.63;;;;;;;9.13;100.00;100268.81;5113733;28;20229;-76
2023/01/22 04:21:19;;;;;;;0.70;0.70;;;;;;;9.20;100.00;100283.69;5104059;28;20206;-76
2023/01/22 04:23:46;;;;;;;1.43;1.43;;;;;;;9.12;100.00;100280.03;5093839;28;20205;-76
2023/01/22 04:26:12;;;;;;;0.68;0.68;;;;;;;9.09;100.00;100290.31;5093710;28;20210;-75
2023/01/22 04:28:39;;;;;;;0.80;0.80;;;;;;;8.88;100.00;100279.44;5093399;28;20267;-75
2023/01/22 04:31:07;;;;;;;0.70;0.70;;;;;;;9.05;100.00;100293.66;5102542;28;20194;-76
2023/01/22 04:33:34;;;;;;;0.80;0.80;;;;;;;9.07;100.00;100302.31;5113398;28;20362;-75
2023/01/22 04:36:01;;;;;;;0.50;0.50;;;;;;;9.09;100.00;100302.38;5057492;28;20216;-75
2023/01/22 04:38:29;;;;;;;0.82;0.82;;;;;;;9.06;100.00;100299.72;5109283;28;20232;-75
2023/01/22 04:40:56;;;;;;;0.60;0.60;;;;;;;8.92;100.00;100307.09;5107849;28;20189;-76
2023/01/22 04:43:22;;;;;;;1.00;1.00;;;;;;;9.02;100.00;100301.34;5109345;28;20559;-75
2023/01/22 04:45:50;;;;;;;0.90;0.90;;;;;;;8.99;100.00;100297.81;5105227;28;20452;-76
2023/01/22 04:48:16;;;;;;;0.80;0.80;;;;;;;9.07;100.00;100302.31;5041378;28;20285;-76
2023/01/22 04:50:43;;;;;;;1.50;1.33;;;;;;;8.81;100.00;100286.16;5099597;28;20531;-77
2023/01/22 04:53:10;;;;;;;0.93;0.93;;;;;;;8.96;100.00;100324.44;5099287;28;20198;-76
2023/01/22 04:55:40;;;;;;;0.60;0.60;;;;;;;8.87;100.00;100306.13;5093012;28;20286;-75
2023/01/22 04:58:08;;;;;;;0.80;0.80;;;;;;;8.93;100.00;100325.25;5096663;28;20240;-76
2023/01/22 05:00:34;;;;;;;0.80;0.80;;;;;;;8.85;100.00;100331.06;5092732;28;20289;-75
2023/01/22 05:03:03;;;;;;;0.67;0.67;;;;;;;8.97;100.00;100326.22;5092954;28;20302;-75
2023/01/22 05:05:31;;;;;;;0.83;0.83;;;;;;;8.92;100.00;100323.50;5101945;28;20300;-76
2023/01/22 05:07:58;;;;;;;0.80;0.80;;;;;;;8.86;100.00;100301.78;5093480;28;20658;-76
2023/01/22 05:10:25;;;;;;;0.70;0.70;;;;;;;8.85;100.00;100303.50;5097355;28;20197;-76
2023/01/22 05:12:53;;;;;;;0.73;0.73;;;;;;;9.03;100.00;100305.66;5104252;28;20203;-76
2023/01/22 05:15:20;;;;;;;0.63;0.63;;;;;;;9.10;100.00;100323.06;5092431;28;20209;-76
2023/01/22 05:17:47;;;;;;;0.63;0.63;;;;;;;9.19;100.00;100331.09;5092394;28;20206;-76
2023/01/22 05:20:14;;;;;;;1.23;1.23;;;;;;;9.20;100.00;100326.78;5092448;28;20203;-76
2023/01/22 05:22:41;;;;;;;0.60;0.60;;;;;;;9.07;100.00;100306.59;5106488;28;20208;-76
2023/01/22 05:25:08;;;;;;;0.90;0.90;;;;;;;9.01;100.00;100337.50;5106509;28;20209;-76
2023/01/22 05:27:35;;;;;;;0.80;0.80;;;;;;;9.00;100.00;100330.56;5093672;28;20202;-76
2023/01/22 05:30:03;;;;;;;1.00;1.00;;;;;;;9.11;100.00;100335.19;5092518;28;20220;-76
2023/01/22 05:32:30;;;;;;;1.00;1.00;;;;;;;9.12;100.00;100342.13;5104077;28;20194;-76
2023/01/22 05:34:57;;;;;;;3.03;2.90;;;;;;;9.11;100.00;100350.69;5098155;28;20193;-76
2023/01/22 05:37:24;;;;;;;0.80;0.80;;;;;;;9.03;100.00;100357.38;5102591;28;20195;-76
2023/01/22 05:39:50;;;;;;;0.77;0.77;;;;;;;8.81;100.00;100349.94;5097713;28;20222;-77
2023/01/22 05:42:17;;;;;;;0.70;0.70;;;;;;;8.86;100.00;100348.31;5102269;28;20251;-75
2023/01/22 05:44:44;;;;;;;0.80;0.80;;;;;;;8.86;100.00;100353.50;5101059;28;20205;-75
2023/01/22 05:47:14;;;;;;;1.13;1.13;;;;;;;8.90;100.00;100345.00;5104614;28;20187;-76
2023/01/22 05:49:41;;;;;;;0.90;0.90;;;;;;;8.95;100.00;100343.41;5091752;28;20222;-74
2023/01/22 05:52:09;;;;;;;0.63;0.63;;;;;;;8.80;100.00;100353.34;5091083;28;20225;-75
2023/01/22 05:54:37;;;;;;;0.80;0.80;;;;;;;8.88;100.00;100362.19;5092090;28;20267;-75
2023/01/22 05:57:04;;;;;;;0.63;0.63;;;;;;;8.92;100.00;100364.88;5011367;28;20234;-75
2023/01/22 05:59:31;;;;;;;0.93;0.93;;;;;;;8.96;100.00;100363.22;5091596;28;20585;-76
2023/01/22 06:01:58;;;;;;;1.10;1.10;;;;;;;8.74;100.00;100379.03;5109163;28;20209;-78
2023/01/22 06:04:26;;;;;;;1.00;1.00;;;;;;;8.61;100.00;100369.19;5056182;28;20583;-75
2023/01/22 06:06:53;;;;;;;0.80;0.80;;;;;;;8.38;100.00;100377.16;5093496;28;20614;-76
2023/01/22 06:09:20;;;;;;;1.10;1.10;;;;;;;8.35;100.00;100364.16;5091480;28;20202;-76
2023/01/22 06:11:47;;;;;;;0.63;0.63;;;;;;;8.38;100.00;100381.47;5108622;28;20208;-75
2023/01/22 06:14:13;;;;;;;0.70;0.70;;;;;;;8.39;100.00;100385.78;5102405;28;20255;-75
2023/01/22 06:16:40;;;;;;;0.50;0.50;;;;;;;8.58;100.00;100374.28;5109187;28;20254;-75
2023/01/22 06:19:07;;;;;;;0.80;0.80;;;;;;;8.62;100.00;100368.34;5107709;28;20220;-76
2023/01/22 06:21:35;;;;;;;0.77;0.77;;;;;;;8.76;100.00;100372.19;5095102;28;20202;-77
2023/01/22 06:24:02;;;;;;;0.80;0.80;;;;;;;9.25;100.00;100374.31;5103684;28;20522;-77
2023/01/22 06:26:29;;;;;;;0.70;0.70;;;;;;;9.12;100.00;100373.16;5097867;28;20220;-76
2023/01/22 06:28:56;;;;;;;0.70;0.70;;;;;;;8.95;100.00;100395.13;5105094;28;20301;-77
2023/01/22 06:31:22;;;;;;;0.87;0.87;;;;;;;8.72;100.00;100417.75;5106964;28;20259;-76
2023/01/22 06:33:49;;;;;;;1.37;1.37;;;;;;;8.43;100.00;100437.59;5109425;28;20251;-76
2023/01/22 06:36:16;;;;;;;1.10;1.10;;;;;;;8.03;100.00;100442.38;5074168;28;20630;-74
2023/01/22 06:38:44;;;;;;;0.80;0.80;;;;;;;8.21;100.00;100445.50;5061722;28;20248;-76
2023/01/22 06:41:11;;;;;;;2.73;2.53;;;;;;;8.28;100.00;100444.00;5096376;28;20700;-75
2023/01/22 06:43:37;;;;;;;0.80;0.80;;;;;;;8.39;100.00;100453.84;5096431;28;20201;-76
2023/01/22 06:46:05;;;;;;;0.93;0.93;;;;;;;8.26;100.00;100432.75;5110693;28;20201;-76
2023/01/22 06:48:32;;;;;;;0.90;0.90;;;;;;;8.34;100.00;100432.19;5104544;28;20553;-76
2023/01/22 06:50:59;;;;;;;0.90;0.90;;;;;;;8.49;100.00;100429.16;5109969;28;20201;-76
2023/01/22 06:53:26;;;;;;;0.90;0.90;;;;;;;8.54;100.00;100429.28;5098244;28;20198;-75
2023/01/22 06:55:54;;;;;;;1.57;1.57;;;;;;;8.82;100.00;100458.53;5102167;28;20213;-76
2023/01/22 06:58:21;;;;;;;0.70;0.70;;;;;;;8.68;100.00;100451.22;5104227;28;20209;-75
2023/01/22 07:00:48;;;;;;;0.60;0.60;;;;;;;8.89;100.00;100470.81;5107125;28;20205;-75
2023/01/22 07:03:15;;;;;;;0.90;0.90;;;;;;;8.82;100.00;100475.75;5101686;28;20689;-76
2023/01/22 07:05:42;;;;;;;0.80;0.80;;;;;;;8.81;100.00;100492.13;5093741;28;20548;-74
2023/01/22 07:08:13;;;;;;;1.60;1.27;;;;;;;8.81;100.00;100479.19;5097609;28;20194;-74
2023/01/22 07:10:40;;;;;;;1.40;1.30;;;;;;;8.80;100.00;100482.63;5098441;28;20225;-72
2023/01/22 07:13:09;;;;;;;3.77;3.50;;;;;;;8.70;100.00;100483.19;5097778;28;20202;-71
2023/01/22 07:15:36;;;;;;;0.70;0.70;;;;;;;8.57;100.00;100438.00;5100363;28;20209;-71
2023/01/22 07:18:02;;;;;;;0.60;0.60;;;;;;;8.86;100.00;100472.44;5100415;28;20209;-71
2023/01/22 07:20:29;;;;;;;0.70;0.70;;;;;;;9.15;100.00;100481.00;5093417;28;20597;-75
2023/01/22 07:22:57;;;;;;;0.67;0.67;;;;;;;9.24;100.00;100470.91;5099702;28;20660;-73
2023/01/22 07:25:25;;;;;;;1.23;1.23;;;;;;;9.11;100.00;100490.38;5100735;28;20210;-72
2023/01/22 07:27:52;;;;;;;1.00;1.00;;;;;;;8.68;100.00;100409.88;5093749;28;20205;-71
2023/01/22 07:30:20;;;;;;;0.60;0.60;;;;;;;9.26;100.00;100490.81;5041474;28;20893;-72
2023/01/22 07:32:47;;;;;;;0.60;0.60;;;;;;;9.30;100.00;100487.47;5111883;28;20221;-73
2023/01/22 07:35:14;;;;;;;0.70;0.70;;;;;;;9.44;100.00;100491.28;5104905;28;20201;-73
2023/01/22 07:37:41;;;;;;;0.90;0.90;;;;;;;9.46;100.00;100502.53;5107051;28;20202;-74
2023/01/22 07:40:09;;;;;;;0.88;0.88;;;;;;;9.90;100.00;100482.06;5113740;28;20232;-72
2023/01/22 07:42:39;;;;;;;1.17;1.17;;;;;;;10.02;100.00;100492.72;5113693;28;20214;-73
2023/01/22 07:45:07;;;;;;;15.32;3.72;;;;;;;9.61;100.00;100416.63;5113144;28;20224;-74
2023/01/22 07:47:35;;;;;;;0.80;0.80;;;;;;;10.13;100.00;100511.97;5110388;28;20209;-75
2023/01/22 07:50:02;;;;;;;2.53;2.25;;;;;;;9.61;100.00;100489.13;5103617;28;20639;-73
2023/01/22 07:52:29;;;;;;;0.60;0.60;;;;;;;9.92;100.00;100514.03;5093605;28;20575;-73
2023/01/22 07:54:56;;;;;;;2.75;2.63;;;;;;;9.89;100.00;100506.22;5102087;28;20217;-74
2023/01/22 07:57:22;;;;;;;0.70;0.70;;;;;;;9.99;100.00;100528.06;5111599;28;20194;-71
2023/01/22 07:59:49;;;;;;;1.37;1.37;;;;;;;9.87;100.00;100529.50;5113725;28;20229;-74
2023/01/22 08:02:16;;;;;;;0.80;0.80;;;;;;;9.75;100.00;100515.34;5113310;28;20280;-73
2023/01/22 08:04:44;;;;;;;3.83;3.60;;;;;;;9.96;100.00;100534.00;5113064;28;20201;-74
2023/01/22 08:07:16;;;;;;;1.02;1.02;;;;;;;9.91;100.00;100530.44;5069858;28;20202;-73
2023/01/22 08:09:43;;;;;;;5.30;2.70;;;;;;;9.70;100.00;100535.09;5110670;28;20232;-71
2023/01/22 08:12:10;;;;;;;1.00;1.00;;;;;;;9.63;100.00;100515.06;5100493;28;20685;-72
2023/01/22 08:14:37;;;;;;;0.88;0.88;;;;;;;9.65;100.00;100536.66;5063045;28;20206;-75
2023/01/22 08:17:03;;;;;;;3.20;2.80;;;;;;;9.74;100.00;100539.47;5105297;28;20194;-74
2023/01/22 08:19:30;;;;;;;0.60;0.60;;;;;;;9.86;100.00;100543.28;5060190;28;21097;-71
2023/01/22 08:21:58;;;;;;;0.98;0.98;;;;;;;10.09;100.00;100548.16;5112848;28;20573;-72
2023/01/22 08:24:25;;;;;;;0.80;0.80;;;;;;;10.08;100.00;100554.16;5112084;28;20206;-72
2023/01/22 08:26:52;;;;;;;1.27;1.27;;;;;;;9.95;100.00;100553.00;5076515;28;20210;-72
2023/01/22 08:29:19;;;;;;;0.80;0.80;;;;;;;9.93;100.00;100533.94;5065706;28;20696;-72
2023/01/22 08:31:46;;;;;;;0.70;0.70;;;;;;;10.05;100.00;100543.72;5110436;28;20240;-71
2023/01/22 08:34:13;;;;;;;0.80;0.80;;;;;;;10.18;100.00;100556.16;5105746;28;20707;-71
2023/01/22 08:36:39;;;;;;;1.80;1.70;;;;;;;10.16;100.00;100563.03;5103019;28;20711;-71
2023/01/22 08:39:09;;;;;;;6.43;3.28;;;;;;;10.02;100.00;100564.38;5112053;28;20636;-73
2023/01/22 08:41:36;;;;;;;0.90;0.90;;;;;;;9.90;100.00;100557.19;5112858;28;20274;-71
2023/01/22 08:44:03;;;;;;;0.90;0.90;;;;;;;9.87;100.00;100559.69;5112426;28;20636;-73
2023/01/22 08:46:30;;;;;;;1.02;1.02;;;;;;;9.85;100.00;100563.94;5110829;28;20206;-72
2023/01/22 08:48:57;;;;;;;0.90;0.90;;;;;;;9.83;100.00;100565.63;5112143;28;20189;-72
2023/01/22 08:51:25;;;;;;;1.87;1.77;;;;;;;9.73;100.00;100550.69;5112800;28;20205;-72
2023/01/22 08:53:52;;;;;;;2.37;2.27;;;;;;;9.85;100.00;100543.22;5102660;28;20194;-72
2023/01/22 08:56:20;;;;;;;0.85;0.85;;;;;;;9.98;100.00;100541.84;5112479;28;20248;-72
2023/01/22 08:58:49;;;;;;;0.90;0.90;;;;;;;10.01;100.00;100553.16;5108331;28;20671;-71
2023/01/22 09:01:16;;;;;;;1.13;1.13;;;;;;;9.85;100.00;100527.69;5112514;28;20256;-71
2023/01/22 09:03:43;;;;;;;0.82;0.82;;;;;;;10.03;100.00;100554.03;5105392;28;20306;-72
2023/01/22 09:06:11;;;;;;;0.70;0.70;;;;;;;10.11;100.00;100536.97;5111294;28;20202;-71
2023/01/22 09:08:38;;;;;;;0.60;0.60;;;;;;;10.49;100.00;100565.56;5104322;28;20193;-71
2023/01/22 09:11:05;;;;;;;0.60;0.60;;;;;;;10.79;100.00;100566.22;5112196;28;20213;-70
2023/01/22 09:13:33;;;;;;;1.67;1.67;;;;;;;11.09;100.00;100569.50;5074812;28;20204;-72
2023/01/22 09:16:00;;;;;;;0.70;0.70;;;;;;;11.04;100.00;100559.84;5111715;28;20213;-72
2023/01/22 09:18:27;;;;;;;0.90;0.90;;;;;;;10.94;100.00;100559.66;5111625;28;20206;-72
2023/01/22 09:20:54;;;;;;;3.70;1.67;;;;;;;10.84;100.00;100549.91;5109818;28;20228;-72
2023/01/22 09:23:21;;;;;;;0.70;0.70;;;;;;;10.89;100.00;100552.59;5104715;28;20241;-72
2023/01/22 09:25:48;;;;;;;0.68;0.68;;;;;;;10.75;100.00;100557.50;5111721;28;20305;-72
2023/01/22 09:28:14;;;;;;;2.75;1.98;;;;;;;10.24;100.00;100551.13;5110556;28;20266;-72
2023/01/22 09:30:43;;;;;;;1.07;1.07;;;;;;;10.55;100.00;100547.53;5109104;28;20209;-72
2023/01/22 09:33:09;;;;;;;1.37;1.37;;;;;;;10.67;100.00;100547.78;5096246;28;20226;-72
2023/01/22 09:35:36;;;;;;;0.60;0.60;;;;;;;10.97;100.00;100547.59;5111761;28;20229;-72
2023/01/22 09:38:04;;;;;;;0.80;0.80;;;;;;;10.79;100.00;100523.00;5098822;28;20206;-72
2023/01/22 09:40:36;;;;;;;5.78;2.17;;;;;;;10.98;100.00;100555.41;5106924;28;20264;-73
2023/01/22 09:43:06;;;;;;;0.80;0.80;;;;;;;10.97;100.00;100558.84;5111006;28;20243;-72
2023/01/22 09:45:36;;;;;;;1.08;1.08;;;;;;;10.54;100.00;100572.59;5111160;28;20213;-71
2023/01/22 09:48:09;;;;;;;0.77;0.77;;;;;;;10.19;100.00;100565.72;5104824;28;20205;-72
2023/01/22 09:50:37;;;;;;;1.23;1.23;;;;;;;9.95;100.00;100545.22;5109899;28;20205;-73
2023/01/22 09:53:07;;;;;;;0.70;0.70;;;;;;;10.21;100.00;100567.47;5101617;28;20220;-71
2023/01/22 09:55:40;;;;;;;0.70;0.70;;;;;;;10.39;100.00;100567.91;5107431;28;20198;-71
2023/01/22 09:58:14;;;;;;;7.20;1.85;;;;;;;10.60;100.00;100561.47;5101298;28;20262;-73
2023/01/22 10:00:46;;;;;;;1.52;1.52;;;;;;;10.83;100.00;100565.47;5092543;28;20540;-73
2023/01/22 10:03:22;;;;;;;2.03;1.92;;;;;;;10.90;100.00;100562.16;5101362;28;20197;-70
2023/01/22 10:05:54;;;;;;;1.00;1.00;;;;;;;10.83;100.00;100565.47;5111161;28;20205;-72
2023/01/22 10:08:23;;;;;;;0.80;0.80;;;;;;;10.62;100.00;100529.56;5110839;28;20229;-73
2023/01/22 10:10:50;;;;;;;0.80;0.80;;;;;;;10.80;100.00;100549.84;5094706;28;20201;-73
2023/01/22 10:13:20;;;;;;;0.95;0.95;;;;;;;10.76;100.00;100548.00;5092546;28;20206;-73
2023/01/22 10:15:48;;;;;;;0.60;0.60;;;;;;;10.62;100.00;100546.84;5071278;28;20334;-72
2023/01/22 10:18:26;;;;;;;0.98;0.98;;;;;;;10.83;100.00;100545.59;5100240;28;20205;-72
2023/01/22 10:20:54;;;;;;;0.70;0.70;;;;;;;10.83;100.00;100524.84;5100017;28;20234;-73
2023/01/22 10:23:24;;;;;;;0.63;0.63;;;;;;;10.93;100.00;100525.88;5103072;28;20738;-78
2023/01/22 10:25:54;;;;;;;0.50;0.50;;;;;;;11.00;100.00;100543.34;5058313;28;20314;-74
2023/01/22 10:28:26;;;;;;;0.98;0.98;;;;;;;10.79;100.00;100520.41;5102467;28;20202;-77
2023/01/22 10:30:57;;;;;;;0.65;0.65;;;;;;;10.74;100.00;100514.25;5097381;28;20202;-74
2023/01/22 10:33:26;;;;;;;0.90;0.90;;;;;;;10.53;100.00;100502.53;5071324;28;20670;-75
2023/01/22 10:35:56;;;;;;;1.35;1.25;;;;;;;10.50;100.00;100502.47;5111334;28;20292;-76
2023/01/22 10:38:25;;;;;;;0.95;0.95;;;;;;;10.02;100.00;100517.75;5109354;28;20297;-75
2023/01/22 10:40:57;;;;;;;0.70;0.70;;;;;;;9.98;100.00;100527.16;5109644;28;20225;-75
2023/01/22 10:43:31;;;;;;;1.00;1.00;;;;;;;9.85;100.00;100512.16;5083923;28;20206;-74
2023/01/22 10:46:03;;;;;;;2.60;2.40;;;;;;;9.36;100.00;100441.03;5105303;28;20296;-77
2023/01/22 10:48:32;;;;;;;0.80;0.80;;;;;;;9.91;100.00;100494.19;5090712;28;20282;-76
2023/01/22 10:51:02;;;;;;;1.15;1.15;;;;;;;10.21;100.00;100509.59;5094257;28;20206;-69
2023/01/22 10:53:32;;;;;;;1.92;1.83;;;;;;;10.48;100.00;100515.44;5097163;28;20208;-73
2023/01/22 10:56:01;;;;;;;2.70;1.60;;;;;;;10.36;100.00;100530.69;5107765;28;20663;-72
2023/01/22 10:58:31;;;;;;;3.65;2.15;;;;;;;10.55;100.00;100532.00;5098042;28;20205;-73
2023/01/22 11:01:01;;;;;;;0.70;0.70;;;;;;;10.54;100.00;100478.38;5095169;28;20254;-73
2023/01/22 11:03:38;;;;;;;1.27;1.27;;;;;;;11.12;100.00;100522.84;5094429;28;20209;-79
2023/01/22 11:06:13;;;;;;;0.52;0.52;;;;;;;11.58;100.00;100509.00;5095998;28;20190;-76
2023/01/22 11:08:48;;;;;;;0.77;0.77;;;;;;;11.79;100.00;100530.16;5089788;28;20221;-75
2023/01/22 11:11:17;;;;;;;0.70;0.70;;;;;;;11.69;100.00;100516.97;5094517;28;20285;-76
2023/01/22 11:13:53;;;;;;;0.90;0.90;;;;;;;11.86;100.00;100559.72;5090084;28;20214;-74
2023/01/22 11:16:21;;;;;;;0.60;0.60;;;;;;;11.62;100.00;100556.66;5090576;28;20204;-75
2023/01/22 11:18:55;;;;;;;0.93;0.93;;;;;;;12.15;100.00;100555.91;5094061;28;20219;-73
2023/01/22 11:21:28;;;;;;;0.70;0.70;;;;;;;12.11;100.00;100543.69;5106770;28;20228;-76
2023/01/22 11:24:00;;;;;;;0.70;0.70;;;;;;;12.13;100.00;100573.19;5095943;28;20208;-76
2023/01/22 11:26:39;;;;;;;0.70;0.70;;;;;;;11.99;100.00;100553.00;5107190;28;20209;-74
2023/01/22 11:29:18;;;;;;;1.48;1.48;;;;;;;12.02;100.00;100558.28;5095984;28;20656;-77
2023/01/22 11:31:58;;;;;;;0.52;0.52;;;;;;;12.16;100.00;100552.47;5105797;28;20197;-76
2023/01/22 11:34:48;;;;;;;0.70;0.70;;;;;;;12.33;100.00;100561.38;5061009;28;20229;-78